Terminal Aerodrome Forecast
Issued by NWS Birmingham, AL

Home | Current Version | Previous Version | Text Only | Print | Product List | Glossary On
Versions: 1 2 3 4 5 6 7 8 9 10 11 12 13
678
FTUS44 KBMX 100524
TAFBHM
TAF
KBHM 100524Z 1006/1106 33007KT P6SM FEW060
     FM101500 29011G18KT P6SM SKC
     FM110000 25006KT P6SM SKC=

USA.gov is the U.S. government's official web portal to all federal, state and local government web resources and services.